createdAt,value
2024-01-15T00:04:22.659Z,86.33
2024-01-15T00:09:29.910Z,86.26
2024-01-15T00:14:37.035Z,86.23
2024-01-15T00:19:44.110Z,86.45
2024-01-15T00:24:51.396Z,86.46
2024-01-15T00:29:58.500Z,86.44
2024-01-15T00:35:05.833Z,86.47
2024-01-15T00:40:13.507Z,86.49
2024-01-15T00:45:20.775Z,86.52
2024-01-15T00:50:27.816Z,86.60
2024-01-15T00:55:34.827Z,86.61
2024-01-15T01:00:42.103Z,86.47
2024-01-15T01:05:51.110Z,86.64
2024-01-15T01:10:59.804Z,86.51
2024-01-15T01:16:07.314Z,86.54
2024-01-15T01:21:14.313Z,86.58
2024-01-15T01:26:21.322Z,86.79
2024-01-15T01:31:29.456Z,86.84
2024-01-15T01:36:36.720Z,86.82
2024-01-15T01:41:43.723Z,86.80
2024-01-15T01:46:50.850Z,86.86
2024-01-15T01:52:02.184Z,86.93
2024-01-15T01:57:11.067Z,86.85
2024-01-15T02:02:18.873Z,86.73
2024-01-15T02:07:26.710Z,86.78
2024-01-15T02:12:34.042Z,86.83
2024-01-15T02:18:00.824Z,86.77
2024-01-15T02:23:12.679Z,86.83
2024-01-15T02:28:20.757Z,86.82
2024-01-15T02:33:26.314Z,86.79
2024-01-15T02:38:33.628Z,86.94
2024-01-15T02:43:40.669Z,86.73
2024-01-15T02:48:47.839Z,86.78
2024-01-15T02:53:54.933Z,86.77
2024-01-15T02:59:02.028Z,86.91
2024-01-15T03:04:09.336Z,86.81
2024-01-15T03:09:16.542Z,86.87
2024-01-15T03:14:25.993Z,86.74
2024-01-15T03:19:33.084Z,86.74
2024-01-15T03:24:40.159Z,86.79
2024-01-15T03:29:47.542Z,86.58
2024-01-15T03:34:54.638Z,86.87
2024-01-15T03:40:01.891Z,87.00
2024-01-15T03:45:10.074Z,86.90
2024-01-15T03:50:17.703Z,86.88
2024-01-15T03:55:24.689Z,86.94
2024-01-15T04:00:31.869Z,86.87
2024-01-15T04:05:39.119Z,87.01
2024-01-15T04:10:46.802Z,87.00
2024-01-15T04:15:54.101Z,86.92
2024-01-15T04:21:01.271Z,87.05
2024-01-15T04:26:08.565Z,87.14
2024-01-15T04:31:24.575Z,87.19
2024-01-15T04:36:31.765Z,87.22
2024-01-15T04:41:39.007Z,87.18
2024-01-15T04:46:46.137Z,87.27
2024-01-15T04:51:53.210Z,87.14
2024-01-15T04:57:00.248Z,87.25
2024-01-15T05:02:07.414Z,87.20
2024-01-15T05:07:14.862Z,87.29
2024-01-15T05:12:21.919Z,87.22
2024-01-15T05:17:29.024Z,87.14
2024-01-15T05:22:36.204Z,87.14
2024-01-15T05:27:43.299Z,87.04
2024-01-15T05:32:50.678Z,86.95
2024-01-15T05:37:57.726Z,86.93
2024-01-15T05:43:04.819Z,86.99
2024-01-15T05:48:12.090Z,86.88
2024-01-15T05:53:19.145Z,86.89
2024-01-15T05:58:26.178Z,86.96
2024-01-15T06:03:33.366Z,86.87
2024-01-15T06:08:41.409Z,86.83
2024-01-15T06:13:47.273Z,86.80
2024-01-15T06:18:54.435Z,86.79
2024-01-15T06:24:01.529Z,86.83
2024-01-15T06:29:09.037Z,86.87
2024-01-15T06:34:17.499Z,86.88
2024-01-15T06:39:24.800Z,86.83
2024-01-15T06:44:31.947Z,86.91
2024-01-15T06:49:39.457Z,86.85
2024-01-15T06:54:46.904Z,86.71
2024-01-15T06:59:53.858Z,86.82
2024-01-15T07:05:01.053Z,86.71
2024-01-15T07:10:10.199Z,86.77
2024-01-15T07:15:17.454Z,86.73
2024-01-15T07:20:24.757Z,86.70
2024-01-15T07:25:31.934Z,86.73
2024-01-15T07:30:40.480Z,86.80
2024-01-15T07:35:47.917Z,86.87
2024-01-15T07:40:55.119Z,86.84
2024-01-15T07:46:02.388Z,86.91
2024-01-15T07:51:09.993Z,86.92
2024-01-15T07:56:17.279Z,86.99
2024-01-15T08:01:24.398Z,86.99
2024-01-15T08:06:31.725Z,87.07
2024-01-15T08:11:41.543Z,87.02
2024-01-15T08:16:48.718Z,86.88
2024-01-15T08:21:56.000Z,86.79
2024-01-15T08:27:03.234Z,86.56
2024-01-15T08:32:15.138Z,86.53
2024-01-15T08:37:22.331Z,86.58
2024-01-15T08:42:29.655Z,86.69
2024-01-15T08:47:37.093Z,86.64
2024-01-15T08:52:44.262Z,86.53
2024-01-15T08:57:52.052Z,86.46
2024-01-15T09:02:59.244Z,86.07
2024-01-15T09:08:06.838Z,86.14
2024-01-15T09:13:13.850Z,86.05
2024-01-15T09:18:21.110Z,86.22
2024-01-15T09:23:29.770Z,86.24
2024-01-15T09:28:37.235Z,85.95
2024-01-15T09:33:44.392Z,86.15
2024-01-15T09:38:51.495Z,86.16
2024-01-15T09:43:58.704Z,86.36
2024-01-15T09:49:06.240Z,86.19
2024-01-15T09:54:14.790Z,86.15
2024-01-15T09:59:22.825Z,85.79
2024-01-15T10:04:30.180Z,85.67
2024-01-15T10:09:37.393Z,86.49
2024-01-15T10:14:47.170Z,86.77
2024-01-15T10:19:54.303Z,86.81
2024-01-15T10:25:01.611Z,86.84
2024-01-15T10:30:10.749Z,86.74
2024-01-15T10:35:17.899Z,86.20
2024-01-15T10:40:25.177Z,85.60
2024-01-15T10:45:32.440Z,85.68
2024-01-15T10:50:40.014Z,85.61
2024-01-15T10:55:49.974Z,85.69
2024-01-15T11:00:58.026Z,85.73
2024-01-15T11:06:05.992Z,85.77
2024-01-15T11:11:13.096Z,85.62
2024-01-15T11:16:20.405Z,85.39
2024-01-15T11:21:31.240Z,85.84
2024-01-15T11:26:45.653Z,86.01
2024-01-15T11:32:04.069Z,86.19
2024-01-15T11:37:11.220Z,86.34
2024-01-15T11:42:29.685Z,86.43
2024-01-15T11:48:11.285Z,86.64
2024-01-15T11:53:36.416Z,86.45
2024-01-15T11:58:44.229Z,86.27
2024-01-15T12:03:52.671Z,85.90
2024-01-15T12:09:11.631Z,85.76
2024-01-15T12:14:18.747Z,85.45
2024-01-15T12:19:26.041Z,85.75
2024-01-15T12:24:33.528Z,85.58
2024-01-15T12:29:41.934Z,85.39
2024-01-15T12:34:49.096Z,85.22
2024-01-15T12:39:57.354Z,85.36
2024-01-15T12:45:05.592Z,85.32
2024-01-15T12:50:19.559Z,85.23
2024-01-15T12:55:27.988Z,85.22
2024-01-15T13:00:35.175Z,85.11
2024-01-15T13:05:43.261Z,85.02
2024-01-15T13:10:50.519Z,84.63
2024-01-15T13:15:57.757Z,84.43
2024-01-15T13:21:05.935Z,84.26
2024-01-15T13:26:13.697Z,84.26
2024-01-15T13:31:22.039Z,84.09
2024-01-15T13:36:29.383Z,83.84
2024-01-15T13:41:36.652Z,84.26
2024-01-15T13:46:44.017Z,84.14
2024-01-15T13:51:51.261Z,84.23
2024-01-15T13:56:58.394Z,84.28
2024-01-15T14:02:06.720Z,84.24
2024-01-15T14:07:14.309Z,84.25
2024-01-15T14:12:21.494Z,84.21
2024-01-15T14:17:28.625Z,84.16
2024-01-15T14:22:35.819Z,83.98
2024-01-15T14:27:43.354Z,83.82
2024-01-15T14:32:51.094Z,83.96
2024-01-15T14:37:59.681Z,84.03
2024-01-15T14:43:07.505Z,83.92
2024-01-15T14:48:15.043Z,83.78
2024-01-15T14:53:22.801Z,83.82
2024-01-15T14:58:29.926Z,83.84
2024-01-15T15:03:42.140Z,83.89
2024-01-15T15:08:52.602Z,83.73
2024-01-15T15:14:01.581Z,83.60
2024-01-15T15:19:07.209Z,83.49
2024-01-15T15:24:14.525Z,83.56
2024-01-15T15:29:21.652Z,83.44
2024-01-15T15:34:28.787Z,83.32
2024-01-15T15:39:36.001Z,83.14
2024-01-15T15:44:47.912Z,82.74
2024-01-15T15:49:55.806Z,82.85
2024-01-15T15:55:04.020Z,82.61
2024-01-15T16:00:13.057Z,82.71
2024-01-15T16:05:21.204Z,82.61
2024-01-15T16:10:31.245Z,82.32
2024-01-15T16:15:38.880Z,82.33
2024-01-15T16:23:32.678Z,82.14
2024-01-15T16:26:14.336Z,82.31
2024-01-15T16:31:23.115Z,81.95
2024-01-15T16:36:30.230Z,82.02
2024-01-15T16:41:37.505Z,81.86
2024-01-15T16:46:45.140Z,81.92
2024-01-15T16:51:52.410Z,81.93
2024-01-15T16:57:00.563Z,81.73
2024-01-15T17:02:06.553Z,81.42
2024-01-15T17:07:15.059Z,81.44
2024-01-15T17:12:22.095Z,81.66
2024-01-15T17:17:29.928Z,81.53
2024-01-15T17:22:37.773Z,81.46
2024-01-15T17:27:45.176Z,81.37
2024-01-15T17:32:52.413Z,81.25
2024-01-15T17:37:59.644Z,81.13
2024-01-15T17:43:07.804Z,80.92
2024-01-15T17:48:15.207Z,81.28
2024-01-15T17:53:22.482Z,80.74
2024-01-15T17:58:29.819Z,80.78
2024-01-15T18:03:37.085Z,80.71
2024-01-15T18:08:45.655Z,80.72
2024-01-15T18:13:52.838Z,80.47
2024-01-15T18:19:00.357Z,80.58
2024-01-15T18:24:08.429Z,80.51
2024-01-15T18:29:15.676Z,80.47
2024-01-15T18:34:22.901Z,80.45
2024-01-15T18:39:30.664Z,80.56
2024-01-15T18:44:38.100Z,80.83
2024-01-15T18:49:46.478Z,80.86
2024-01-15T18:54:52.071Z,81.13
2024-01-15T18:59:59.309Z,81.22
2024-01-15T19:05:07.412Z,81.25
2024-01-15T19:10:14.646Z,81.35
2024-01-15T19:15:22.030Z,81.35
2024-01-15T19:20:29.675Z,81.45
2024-01-15T19:25:38.818Z,81.32
2024-01-15T19:30:46.096Z,81.33
2024-01-15T19:35:53.702Z,81.23
2024-01-15T19:41:00.913Z,81.16
2024-01-15T19:46:09.951Z,81.11
2024-01-15T19:51:17.324Z,81.15
2024-01-15T19:56:24.521Z,81.24
2024-01-15T20:01:33.492Z,81.25
2024-01-15T20:06:40.782Z,81.22
2024-01-15T20:11:48.141Z,80.97
2024-01-15T20:16:55.406Z,81.02
2024-01-15T20:22:03.020Z,80.90
2024-01-15T20:27:10.368Z,80.73
2024-01-15T20:32:19.568Z,80.56
2024-01-15T20:37:28.172Z,80.45
2024-01-15T20:42:35.610Z,80.51
2024-01-15T20:47:43.169Z,80.62
2024-01-15T20:52:50.486Z,80.50
2024-01-15T20:57:57.880Z,80.56
2024-01-15T21:03:05.618Z,80.67
2024-01-15T21:08:11.633Z,80.68
2024-01-15T21:13:19.696Z,80.66
2024-01-15T21:18:27.278Z,80.62
2024-01-15T21:23:34.536Z,80.39
2024-01-15T21:28:41.778Z,80.40
2024-01-15T21:33:49.762Z,80.45
2024-01-15T21:38:57.052Z,80.29
2024-01-15T21:44:07.688Z,80.28
2024-01-15T21:49:15.054Z,80.16
2024-01-15T21:54:22.200Z,80.27
2024-01-15T21:59:30.181Z,80.30
2024-01-15T22:04:38.618Z,80.28
2024-01-15T22:09:45.798Z,80.21
2024-01-15T22:14:53.051Z,80.13
2024-01-15T22:20:00.380Z,80.00
2024-01-15T22:25:09.103Z,79.86
2024-01-15T22:30:16.513Z,79.90
2024-01-15T22:35:24.073Z,79.40
2024-01-15T22:40:33.011Z,79.17
2024-01-15T22:45:40.293Z,78.79
2024-01-15T22:50:47.724Z,78.67
2024-01-15T22:55:54.800Z,78.73
2024-01-15T23:01:03.125Z,78.46
2024-01-15T23:06:20.728Z,78.46
2024-01-15T23:11:27.951Z,78.35
2024-01-15T23:16:35.409Z,78.46
2024-01-15T23:21:42.560Z,78.38
2024-01-15T23:26:49.784Z,78.42
2024-01-15T23:31:57.967Z,78.50
2024-01-15T23:37:05.570Z,78.47
2024-01-15T23:42:15.213Z,78.48
2024-01-15T23:47:22.823Z,78.42
2024-01-15T23:52:30.009Z,78.47
2024-01-15T23:57:37.179Z,78.39
